createdAt,value
2023-05-23T00:03:18.750Z,100307.78
2023-05-23T00:08:21.142Z,100311.63
2023-05-23T00:13:23.408Z,100281.72
2023-05-23T00:18:25.916Z,100300.53
2023-05-23T00:23:30.053Z,100280.63
2023-05-23T00:28:32.362Z,100283.34
2023-05-23T00:33:35.272Z,100298.06
2023-05-23T00:38:37.585Z,100309.41
2023-05-23T00:43:39.833Z,100314.75
2023-05-23T00:48:42.271Z,100308.25
2023-05-23T00:53:44.603Z,100304.50
2023-05-23T00:58:47.041Z,100307.81
2023-05-23T01:03:49.299Z,100307.78
2023-05-23T01:08:52.125Z,100307.88
2023-05-23T01:14:01.694Z,100299.78
2023-05-23T01:19:27.343Z,100292.09
2023-05-23T01:24:36.785Z,100304.69
2023-05-23T01:29:44.130Z,100284.34
2023-05-23T01:34:48.109Z,100287.84
2023-05-23T01:39:50.374Z,100271.09
2023-05-23T01:44:52.902Z,100279.69
2023-05-23T01:49:57.743Z,100272.38
2023-05-23T01:55:01.153Z,100274.34
2023-05-23T02:00:06.409Z,100264.25
2023-05-23T02:05:10.501Z,100275.53
2023-05-23T02:10:12.743Z,100261.16
2023-05-23T02:15:15.088Z,100262.94
2023-05-23T02:20:19.299Z,100263.50
2023-05-23T02:25:23.572Z,100249.69
2023-05-23T02:30:25.771Z,100270.28
2023-05-23T02:35:27.968Z,100264.44
2023-05-23T02:40:30.260Z,100255.59
2023-05-23T02:45:32.530Z,100269.00
2023-05-23T02:50:34.744Z,100261.03
2023-05-23T02:55:37.157Z,100278.97
2023-05-23T03:00:39.912Z,100276.38
2023-05-23T03:05:42.508Z,100263.97
2023-05-23T03:10:44.812Z,100252.56
2023-05-23T03:15:47.199Z,100240.53
2023-05-23T03:20:49.369Z,100248.81
2023-05-23T03:25:51.639Z,100272.63
2023-05-23T03:30:53.919Z,100267.22
2023-05-23T03:35:57.107Z,100279.09
2023-05-23T03:40:59.339Z,100277.22
2023-05-23T03:46:01.612Z,100284.97
2023-05-23T03:51:03.933Z,100293.38
2023-05-23T03:56:06.778Z,100271.38
2023-05-23T04:01:09.818Z,100283.88
2023-05-23T04:06:14.164Z,100280.94
2023-05-23T04:11:17.313Z,100276.56
2023-05-23T04:16:20.058Z,100280.63
2023-05-23T04:21:22.335Z,100272.16
2023-05-23T04:26:24.648Z,100273.63
2023-05-23T04:31:27.453Z,100279.88
2023-05-23T04:36:30.685Z,100287.66
2023-05-23T04:41:33.101Z,100288.81
2023-05-23T04:46:35.404Z,100283.78
2023-05-23T04:51:38.720Z,100285.84
2023-05-23T04:56:41.089Z,100288.84
2023-05-23T05:01:43.354Z,100278.84
2023-05-23T05:06:46.053Z,100302.59
2023-05-23T05:11:48.253Z,100287.34
2023-05-23T05:16:51.272Z,100291.09
2023-05-23T05:21:53.532Z,100291.03
2023-05-23T05:26:56.107Z,100271.31
2023-05-23T05:31:58.425Z,100299.59
2023-05-23T05:37:00.648Z,100301.78
2023-05-23T05:42:04.134Z,100312.53
2023-05-23T05:47:06.786Z,100313.34
2023-05-23T05:52:09.246Z,100301.59
2023-05-23T05:57:11.609Z,100298.69
2023-05-23T06:02:13.877Z,100296.56
2023-05-23T06:07:16.190Z,100320.03
2023-05-23T06:12:18.459Z,100302.38
2023-05-23T06:17:21.152Z,100303.06
2023-05-23T06:22:23.574Z,100298.84
2023-05-23T06:27:25.985Z,100312.13
2023-05-23T06:32:28.309Z,100294.88
2023-05-23T06:37:30.579Z,100325.47
2023-05-23T06:42:32.843Z,100317.19
2023-05-23T06:47:35.144Z,100316.81
2023-05-23T06:52:37.482Z,100318.03
2023-05-23T06:57:39.730Z,100306.16
2023-05-23T07:02:42.082Z,100298.06
2023-05-23T07:07:44.471Z,100282.22
2023-05-23T07:12:47.581Z,100300.34
2023-05-23T07:17:49.875Z,100296.84
2023-05-23T07:22:52.089Z,100291.97
2023-05-23T07:27:55.219Z,100301.41
2023-05-23T07:32:58.122Z,100275.97
2023-05-23T07:38:00.440Z,100282.03
2023-05-23T07:43:02.749Z,100279.66
2023-05-23T07:48:05.214Z,100276.72
2023-05-23T07:53:07.543Z,100282.63
2023-05-23T07:58:09.778Z,100271.19
2023-05-23T08:03:12.385Z,100282.63
2023-05-23T08:08:14.742Z,100280.56
2023-05-23T08:13:17.029Z,100280.94
2023-05-23T08:18:19.343Z,100266.47
2023-05-23T08:23:21.655Z,100271.94
2023-05-23T08:28:23.919Z,100285.97
2023-05-23T08:33:26.207Z,100283.44
2023-05-23T08:38:28.446Z,100277.25
2023-05-23T08:43:30.846Z,100261.44
2023-05-23T08:48:35.473Z,100279.28
2023-05-23T08:53:41.559Z,100272.72
2023-05-23T08:58:44.267Z,100250.03
2023-05-23T09:03:47.144Z,100261.47
2023-05-23T09:08:49.774Z,100247.00
2023-05-23T09:13:52.408Z,100248.84
2023-05-23T09:18:55.069Z,100256.44
2023-05-23T09:23:57.456Z,100247.09
2023-05-23T09:29:01.074Z,100256.00
2023-05-23T09:34:05.084Z,100236.78
2023-05-23T09:39:08.535Z,100250.88
2023-05-23T09:44:10.948Z,100248.25
2023-05-23T09:49:19.436Z,100254.63
2023-05-23T09:54:21.698Z,100244.34
2023-05-23T09:59:27.050Z,100247.19
2023-05-23T10:04:35.777Z,100229.00
2023-05-23T10:09:40.659Z,100243.59
2023-05-23T10:14:49.171Z,100250.91
2023-05-23T10:20:03.014Z,100243.59
2023-05-23T10:25:07.495Z,100237.59
2023-05-23T10:30:11.023Z,100220.69
2023-05-23T10:35:42.463Z,100231.66
2023-05-23T10:40:53.679Z,100237.53
2023-05-23T10:45:56.119Z,100237.63
2023-05-23T10:51:07.106Z,100233.53
2023-05-23T10:56:10.946Z,100229.56
2023-05-23T11:01:20.459Z,100220.47
2023-05-23T11:06:45.595Z,100226.91
2023-05-23T11:12:05.836Z,100221.69
2023-05-23T11:17:14.123Z,100209.63
2023-05-23T11:22:16.468Z,100200.72
2023-05-23T11:27:32.536Z,100208.13
2023-05-23T11:32:35.233Z,100200.38
2023-05-23T11:37:40.022Z,100205.41
2023-05-23T11:42:44.573Z,100202.22
2023-05-23T11:47:46.911Z,100210.72
2023-05-23T11:52:52.330Z,100203.22
2023-05-23T11:57:56.905Z,100207.31
2023-05-23T12:02:59.327Z,100200.50
2023-05-23T12:08:01.837Z,100210.94
2023-05-23T12:13:05.556Z,100179.00
2023-05-23T12:18:08.627Z,100186.44
2023-05-23T12:23:19.607Z,100166.03
2023-05-23T12:28:23.340Z,100196.16
2023-05-23T12:33:26.230Z,100192.44
2023-05-23T12:38:29.336Z,100197.00
2023-05-23T12:43:31.599Z,100193.50
2023-05-23T12:48:34.336Z,100201.97
2023-05-23T12:53:37.011Z,100210.66
2023-05-23T12:58:39.473Z,100204.38
2023-05-23T13:03:41.904Z,100202.34
2023-05-23T13:08:44.613Z,100214.91
2023-05-23T13:13:47.576Z,100190.59
2023-05-23T13:18:49.858Z,100204.13
2023-05-23T13:23:52.182Z,100214.00
2023-05-23T13:28:54.432Z,100218.13
2023-05-23T13:33:56.773Z,100211.94
2023-05-23T13:38:59.087Z,100211.19
2023-05-23T13:44:01.282Z,100218.72
2023-05-23T13:49:03.568Z,100210.78
2023-05-23T13:54:06.618Z,100217.94
2023-05-23T13:59:08.942Z,100207.94
2023-05-23T14:04:11.257Z,100199.69
2023-05-23T14:09:14.248Z,100190.00
2023-05-23T14:14:17.117Z,100187.34
2023-05-23T14:19:19.886Z,100188.38
2023-05-23T14:24:22.838Z,100195.50
2023-05-23T14:29:25.093Z,100177.19
2023-05-23T14:34:27.505Z,100192.22
2023-05-23T14:39:29.801Z,100187.84
2023-05-23T14:44:32.145Z,100186.41
2023-05-23T14:49:34.477Z,100178.34
2023-05-23T14:54:36.927Z,100170.38
2023-05-23T14:59:39.237Z,100166.84
2023-05-23T15:04:41.455Z,100169.34
2023-05-23T15:09:43.638Z,100176.63
2023-05-23T15:14:46.001Z,100174.72
2023-05-23T15:19:48.507Z,100166.53
2023-05-23T15:24:50.779Z,100176.72
2023-05-23T15:29:53.094Z,100168.63
2023-05-23T15:34:55.469Z,100172.25
2023-05-23T15:39:57.805Z,100192.25
2023-05-23T15:45:00.247Z,100198.69
2023-05-23T15:50:02.597Z,100187.09
2023-05-23T15:55:06.121Z,100190.97
2023-05-23T16:00:09.187Z,100198.34
2023-05-23T16:05:11.471Z,100196.75
2023-05-23T16:10:14.802Z,100208.41
2023-05-23T16:15:17.069Z,100208.97
2023-05-23T16:20:19.536Z,100198.44
2023-05-23T16:25:21.958Z,100202.91
2023-05-23T16:30:26.804Z,100186.63
2023-05-23T16:35:29.120Z,100199.22
2023-05-23T16:40:31.364Z,100206.72
2023-05-23T16:45:33.649Z,100223.34
2023-05-23T16:50:36.055Z,100224.84
2023-05-23T16:55:38.536Z,100241.25
2023-05-23T17:00:41.129Z,100228.41
2023-05-23T17:05:43.662Z,100236.91
2023-05-23T17:10:46.396Z,100248.94
2023-05-23T17:15:48.816Z,100241.50
2023-05-23T17:20:51.086Z,100245.09
2023-05-23T17:25:53.434Z,100265.22
2023-05-23T17:30:55.864Z,100240.28
2023-05-23T17:35:58.093Z,100266.84
2023-05-23T17:41:00.924Z,100261.97
2023-05-23T17:46:03.199Z,100269.94
2023-05-23T17:51:05.634Z,100281.19
2023-05-23T17:56:12.290Z,100276.53
2023-05-23T18:01:14.904Z,100277.59
2023-05-23T18:06:17.201Z,100274.88
2023-05-23T18:11:20.045Z,100295.09
2023-05-23T18:16:23.441Z,100297.84
2023-05-23T18:21:27.193Z,100299.19
2023-05-23T18:26:29.548Z,100293.44
2023-05-23T18:31:31.887Z,100303.78
2023-05-23T18:36:34.196Z,100295.00
2023-05-23T18:41:36.590Z,100292.22
2023-05-23T18:46:38.938Z,100298.81
2023-05-23T18:51:41.502Z,100302.16
2023-05-23T18:56:43.790Z,100328.13
2023-05-23T19:01:46.823Z,100322.66
2023-05-23T19:06:50.201Z,100328.09
2023-05-23T19:11:52.545Z,100319.31
2023-05-23T19:16:55.916Z,100333.78
2023-05-23T19:21:58.619Z,100338.94
2023-05-23T19:27:02.370Z,100339.22
2023-05-23T19:32:04.886Z,100353.94
2023-05-23T19:37:07.155Z,100333.88
2023-05-23T19:42:09.425Z,100366.22
2023-05-23T19:47:12.635Z,100356.03
2023-05-23T19:52:14.870Z,100378.16
2023-05-23T19:57:17.501Z,100376.16
2023-05-23T20:02:19.711Z,100374.53
2023-05-23T20:07:21.887Z,100363.56
2023-05-23T20:12:24.198Z,100365.69
2023-05-23T20:17:26.556Z,100350.78
2023-05-23T20:22:29.146Z,100365.56
2023-05-23T20:27:31.634Z,100357.84
2023-05-23T20:32:33.982Z,100361.09
2023-05-23T20:37:36.399Z,100372.97
2023-05-23T20:42:38.938Z,100375.00
2023-05-23T20:47:44.188Z,100389.69
2023-05-23T20:52:46.869Z,100386.63
2023-05-23T20:57:49.096Z,100380.56
2023-05-23T21:02:51.564Z,100385.72
2023-05-23T21:07:54.005Z,100375.91
2023-05-23T21:12:56.415Z,100380.78
2023-05-23T21:17:59.278Z,100387.66
2023-05-23T21:23:01.709Z,100379.34
2023-05-23T21:28:04.000Z,100384.84
2023-05-23T21:33:06.456Z,100368.88
2023-05-23T21:38:08.781Z,100383.81
2023-05-23T21:43:11.075Z,100398.34
2023-05-23T21:48:13.393Z,100379.75
2023-05-23T21:53:15.924Z,100387.56
2023-05-23T21:58:18.188Z,100385.84
2023-05-23T22:03:20.671Z,100385.47
2023-05-23T22:08:22.886Z,100351.63
2023-05-23T22:13:25.156Z,100385.41
2023-05-23T22:18:30.625Z,100380.94
2023-05-23T22:23:37.841Z,100382.53
2023-05-23T22:28:40.124Z,100372.31
2023-05-23T22:33:42.991Z,100366.75
2023-05-23T22:38:45.746Z,100373.34
2023-05-23T22:43:48.054Z,100368.63
2023-05-23T22:48:52.933Z,100365.78
2023-05-23T22:53:55.392Z,100374.50
2023-05-23T22:58:57.596Z,100385.47
2023-05-23T23:03:59.919Z,100361.06
2023-05-23T23:09:02.154Z,100363.78
2023-05-23T23:14:04.377Z,100364.75
2023-05-23T23:19:06.747Z,100354.06
2023-05-23T23:24:09.494Z,100344.91
2023-05-23T23:29:11.738Z,100342.84
2023-05-23T23:34:13.991Z,100342.44
2023-05-23T23:39:16.751Z,100356.28
2023-05-23T23:44:19.231Z,100354.72
2023-05-23T23:49:21.489Z,100331.06
2023-05-23T23:54:23.766Z,100349.19
2023-05-23T23:59:26.265Z,100348.25
